Destaques do tempo em 25/9/18

26/09/2018 às 01:57
por Josélia Pegorim

Oferecimento
Fortes rajadas de vento no Centro-Oeste e no Tocantins.

 

Fortes rajadas de vento no C-O e no TO

A presença de nuvens muito carregadas provocou fortes rajadas de vento em alguns locais do Centro-Oeste e do Tocantins.

Confiras as rajadas iguais ou acima de 70 km/h registradas pelo Instituto Nacional de Meteorologia até 18 horas (Brasília)

86 km/h em Sapezal (MT)

78 km/h em Marianópolis do Tocantins (TO)

77 km/h em Jataí (GO)

71 km/h em Dionísio Cerqueira (SC)



Chuva no interior de SP

Fortes áreas de chuva se desenvolveram em locais do centro-norte do estado de São Paulo. Choveu forte e com raios em Ribeirão Preto e Pirassununga, conforme registro dos aeroportos locais. O CEMADEN registrou 16,4 mm em 1h em Araras, entre 18h20 e 19h20 e 13,8 mm em Leme. O INMET registrou 7,6 mm em Pradópolis.

 

METAR SBRP 252100Z 35010G20KT (35019G37KMH) 310V020 9999 TS VCSH FEW040 FEW045CB 29 /15 Q1012

 

METAR SBSY 252100Z AUTO 02017KT (02031KMH) 7000 +RA VCTS FEW038 //////CB 24/17 Q1013

 

METAR SBYS 252100Z 02018KT (02033KMH) 6000 -TSRA SCT037 FEW045CB BKN087 24/17 Q1014



Queda de temperatura São Paulo e no Rio De Janeiro

Uma mudança não prevista na direção dos ventos trouxe ar frio para São Paulo e Rio de Janeiro nesta terça-feira, 25 de setembro.

Para São Paulo e a máxima prevista o dia 24 para o dia 25 de setembro era de 33°C. O valor foi alterado para 30°C na revisão da previsão da manhã, mas a máxima foi de 26,4°C.

No Rio de Janeiro, a temperatura prevista era de 36°C e a máxima do dia 25 foi de 30°C.

 

Calorão no Sudeste

Temperaturas bastante elevadas foram observadas nos estados do Sudeste, em particular em no norte de Minas Gerais e de São Paulo. Confira as maiores temperaturas de cada estado, pela medição automática do INMET

 

São Romão (MG): 38,8°C

Barreto (SP): 38,7°C

Alegre (ES): 34,8°C

Rio de Janeiro (RJ): 33,0°C



Recorde de calor em Brasília

O Instituto Nacional de Meteorologia registrou 32,2°C de temperatura máxima Brasília nesta terça-feira, 25 de setembro.A marca igualou o recorde de calor atual que ocorreu em 12 de setembro. O valor foi medido 32,2°C foi medido às 15 horas e poderá aumentar na nova leitura que será feita às 21 horas.

Um novo recorde de calor para 2018 poderá ser estabelecido nesta quarta-feira, 26..

 

Ar muito seco

Os estados da Bahia, Paraíba, Minas Gerais, Goiás, São Paulo e o Distrito Federal registraram níveis de umidade no ar abaixo dos 20% em 25/9/18. Confira os menores valores medidos pelo Instituto Nacional de Meteorologia, por instrumentos automáticos, sem interferência de um observador meteorológico

 

Patos (PB): 10%

Montalvânia (MG): 13%

Monte Alegre de Goiás (GO): 15%

Goianésia (GO): 15%

Ibotirama (BA): 16%

Barretos (SP): 17%

Águas Emendadas (DF): 18%



CIDADES RELACIONADAS

São Paulo - SP

12°
min

21°
max

0mm / 0%

Rio de Janeiro - RJ

12°
min

25°
max

0mm / 0%